createdAt,value
2022-08-17T00:01:53.105Z,60.40
2022-08-17T00:04:23.530Z,61.32
2022-08-17T00:06:53.412Z,61.24
2022-08-17T00:09:21.127Z,61.23
2022-08-17T00:12:35.527Z,61.66
2022-08-17T00:14:39.336Z,62.30
2022-08-17T00:17:09.748Z,61.91
2022-08-17T00:19:37.445Z,62.18
2022-08-17T00:22:33.972Z,62.27
2022-08-17T00:25:05.830Z,63.09
2022-08-17T00:27:33.618Z,63.39
2022-08-17T00:30:03.725Z,63.61
2022-08-17T00:33:23.437Z,64.86
2022-08-17T00:35:31.794Z,64.36
2022-08-17T00:38:00.930Z,64.18
2022-08-17T00:40:40.728Z,63.63
2022-08-17T00:43:17.453Z,63.80
2022-08-17T00:45:45.506Z,64.00
2022-08-17T00:48:23.817Z,64.61
2022-08-17T00:50:59.653Z,64.65
2022-08-17T00:53:31.124Z,65.54
2022-08-17T00:55:59.617Z,65.86
2022-08-17T00:58:35.428Z,65.67
2022-08-17T01:01:04.641Z,65.89
2022-08-17T01:03:32.544Z,65.48
2022-08-17T01:06:00.889Z,65.96
2022-08-17T01:08:30.990Z,64.57
2022-08-17T01:11:01.922Z,63.90
2022-08-17T01:13:30.369Z,64.42
2022-08-17T01:16:00.653Z,65.39
2022-08-17T01:18:28.721Z,67.22
2022-08-17T01:20:57.662Z,66.29
2022-08-17T01:23:27.597Z,64.85
2022-08-17T01:25:56.254Z,64.07
2022-08-17T01:28:52.389Z,64.41
2022-08-17T01:31:14.733Z,65.65
2022-08-17T01:33:43.463Z,66.39
2022-08-17T01:36:14.236Z,67.13
2022-08-17T01:38:43.669Z,67.40
2022-08-17T01:41:17.052Z,66.63
2022-08-17T01:43:45.822Z,66.63
2022-08-17T01:46:15.717Z,67.03
2022-08-17T01:48:47.253Z,67.16
2022-08-17T01:51:15.633Z,69.00
2022-08-17T01:53:46.243Z,68.71
2022-08-17T01:56:15.222Z,68.30
2022-08-17T01:58:43.183Z,68.00
2022-08-17T02:01:12.778Z,68.85
2022-08-17T02:03:41.122Z,68.66
2022-08-17T02:06:27.851Z,68.15
2022-08-17T02:09:02.339Z,69.25
2022-08-17T02:11:32.293Z,67.58
2022-08-17T02:14:02.496Z,68.06
2022-08-17T02:16:37.601Z,68.48
2022-08-17T02:19:09.210Z,68.61
2022-08-17T02:21:37.208Z,69.01
2022-08-17T02:24:09.891Z,67.69
2022-08-17T02:26:37.815Z,67.59
2022-08-17T02:29:05.459Z,67.01
2022-08-17T02:31:33.251Z,66.98
2022-08-17T02:34:04.638Z,66.99
2022-08-17T02:36:39.057Z,66.04
2022-08-17T02:39:08.884Z,66.40
2022-08-17T02:41:36.622Z,67.58
2022-08-17T02:44:05.777Z,66.87
2022-08-17T02:46:33.913Z,66.81
2022-08-17T02:49:03.843Z,66.38
2022-08-17T02:51:31.952Z,67.06
2022-08-17T02:54:05.274Z,68.00
2022-08-17T02:56:49.401Z,68.86
2022-08-17T02:59:17.003Z,67.86
2022-08-17T03:01:46.408Z,65.56
2022-08-17T03:04:14.198Z,66.52
2022-08-17T03:06:44.640Z,66.11
2022-08-17T03:09:13.236Z,66.28
2022-08-17T03:11:40.927Z,67.28
2022-08-17T03:14:10.391Z,67.93
2022-08-17T03:16:38.626Z,67.76
2022-08-17T03:19:08.449Z,67.33
2022-08-17T03:21:36.482Z,66.57
2022-08-17T03:24:08.738Z,68.55
2022-08-17T03:26:36.886Z,69.89
2022-08-17T03:29:04.814Z,69.49
2022-08-17T03:31:33.989Z,70.16
2022-08-17T03:34:05.070Z,70.16
2022-08-17T03:36:36.038Z,71.09
2022-08-17T03:39:06.995Z,70.72
2022-08-17T03:41:34.842Z,70.32
2022-08-17T03:44:02.985Z,70.72
2022-08-17T03:46:48.362Z,72.53
2022-08-17T03:49:35.186Z,74.67
2022-08-17T03:52:20.231Z,73.53
2022-08-17T03:55:05.597Z,73.77
2022-08-17T03:57:33.365Z,72.83
2022-08-17T04:00:01.163Z,72.15
2022-08-17T04:02:32.542Z,71.00
2022-08-17T04:05:04.242Z,71.57
2022-08-17T04:07:32.674Z,71.66
2022-08-17T04:10:00.934Z,70.52
2022-08-17T04:12:31.171Z,70.48
2022-08-17T04:14:59.113Z,70.26
2022-08-17T04:17:34.131Z,70.08
2022-08-17T04:20:03.515Z,70.18
2022-08-17T04:22:34.215Z,68.94
2022-08-17T04:25:03.730Z,70.79
2022-08-17T04:27:33.557Z,70.08
2022-08-17T04:30:01.962Z,70.79
2022-08-17T04:33:05.049Z,69.21
2022-08-17T04:35:23.661Z,69.08
2022-08-17T04:37:55.032Z,67.73
2022-08-17T04:40:39.903Z,69.19
2022-08-17T04:43:08.820Z,70.63
2022-08-17T04:45:39.858Z,71.61
2022-08-17T04:48:10.614Z,70.47
2022-08-17T04:50:44.669Z,69.59
2022-08-17T04:53:12.826Z,69.32
2022-08-17T04:55:41.100Z,70.53
2022-08-17T04:58:09.141Z,70.46
2022-08-17T05:00:40.514Z,68.56
2022-08-17T05:03:13.447Z,67.94
2022-08-17T05:05:43.573Z,67.32
2022-08-17T05:08:11.356Z,65.82
2022-08-17T05:10:45.162Z,65.24
2022-08-17T05:13:16.887Z,65.31
2022-08-17T05:15:48.785Z,64.74
2022-08-17T05:18:22.329Z,64.40
2022-08-17T05:20:54.768Z,64.89
2022-08-17T05:23:42.202Z,63.54
2022-08-17T05:26:21.969Z,61.75
2022-08-17T05:28:59.602Z,59.65
2022-08-17T05:31:31.237Z,59.50
2022-08-17T05:33:59.372Z,59.53
2022-08-17T05:36:43.386Z,60.05
2022-08-17T05:39:24.253Z,61.05
2022-08-17T05:41:52.534Z,60.95
2022-08-17T05:44:23.266Z,59.27
2022-08-17T05:46:51.544Z,60.03
2022-08-17T05:49:26.142Z,60.22
2022-08-17T05:52:19.944Z,59.10
2022-08-17T05:54:53.410Z,58.32
2022-08-17T05:57:32.721Z,57.15
2022-08-17T06:00:03.373Z,58.40
2022-08-17T06:02:37.856Z,56.83
2022-08-17T06:05:12.561Z,58.38
2022-08-17T06:07:42.922Z,58.95
2022-08-17T06:10:14.710Z,59.66
2022-08-17T06:12:58.744Z,60.50
2022-08-17T06:15:28.541Z,60.26
2022-08-17T06:17:58.666Z,60.60
2022-08-17T06:20:27.991Z,59.68
2022-08-17T06:22:57.583Z,58.82
2022-08-17T06:25:32.273Z,59.07
2022-08-17T06:28:01.106Z,58.81
2022-08-17T06:30:57.360Z,58.73
2022-08-17T06:33:21.318Z,58.49
2022-08-17T06:35:51.323Z,58.96
2022-08-17T06:38:37.782Z,58.03
2022-08-17T06:41:12.888Z,58.02
2022-08-17T06:43:48.195Z,58.82
2022-08-17T06:46:19.902Z,57.98
2022-08-17T06:48:48.519Z,57.94
2022-08-17T06:51:18.053Z,57.61
2022-08-17T06:53:47.545Z,57.90
2022-08-17T06:56:20.439Z,58.63
2022-08-17T06:58:50.078Z,58.68
2022-08-17T07:01:20.151Z,58.97
2022-08-17T07:03:55.309Z,57.75
2022-08-17T07:06:24.632Z,58.29
2022-08-17T07:08:54.198Z,59.02
2022-08-17T07:11:29.016Z,58.52
2022-08-17T07:14:02.135Z,58.14
2022-08-17T07:16:31.766Z,57.68
2022-08-17T07:19:00.042Z,58.06
2022-08-17T07:21:32.118Z,57.38
2022-08-17T07:24:03.071Z,57.00
2022-08-17T07:26:33.654Z,57.16
2022-08-17T07:29:01.750Z,56.92
2022-08-17T07:31:31.628Z,56.77
2022-08-17T07:34:00.852Z,56.34
2022-08-17T07:36:33.842Z,55.50
2022-08-17T07:39:02.662Z,54.27
2022-08-17T07:41:57.646Z,53.60
2022-08-17T07:44:21.121Z,52.96
2022-08-17T07:47:07.569Z,52.64
2022-08-17T07:49:37.270Z,54.03
2022-08-17T07:52:48.128Z,53.11
2022-08-17T07:54:56.815Z,52.98
2022-08-17T07:57:36.856Z,53.01
2022-08-17T08:00:16.849Z,52.54
2022-08-17T08:02:49.135Z,51.95
2022-08-17T08:05:30.654Z,52.60
2022-08-17T08:08:22.495Z,52.97
2022-08-17T08:10:58.798Z,53.60
2022-08-17T08:13:28.014Z,53.81
2022-08-17T08:16:16.710Z,52.50
2022-08-17T08:18:56.067Z,54.33
2022-08-17T08:21:30.117Z,53.96
2022-08-17T08:24:02.357Z,53.71
2022-08-17T08:26:32.293Z,53.99
2022-08-17T08:29:03.711Z,53.77
2022-08-17T08:31:40.167Z,54.39
2022-08-17T08:34:58.679Z,55.05
2022-08-17T08:37:16.328Z,55.74
2022-08-17T08:39:49.125Z,55.04
2022-08-17T08:42:19.400Z,54.63
2022-08-17T08:45:00.922Z,54.26
2022-08-17T08:47:43.786Z,56.10
2022-08-17T08:50:38.171Z,55.59
2022-08-17T08:53:09.869Z,54.75
2022-08-17T08:55:43.968Z,53.96
2022-08-17T08:58:31.854Z,52.96
2022-08-17T09:01:16.761Z,53.17
2022-08-17T09:03:54.845Z,55.26
2022-08-17T09:06:39.284Z,56.08
2022-08-17T09:09:22.639Z,58.45
2022-08-17T09:12:02.045Z,58.85
2022-08-17T09:14:45.048Z,56.93
2022-08-17T09:17:17.147Z,56.42
2022-08-17T09:19:49.795Z,56.30
2022-08-17T09:22:22.204Z,56.02
2022-08-17T09:24:56.034Z,55.37
2022-08-17T09:27:26.388Z,55.60
2022-08-17T09:29:57.819Z,57.17
2022-08-17T09:32:27.903Z,57.33
2022-08-17T09:35:02.130Z,58.24
2022-08-17T09:37:32.454Z,59.60
2022-08-17T09:40:05.608Z,59.68
2022-08-17T09:42:34.546Z,62.63
2022-08-17T09:45:09.457Z,62.46
2022-08-17T09:47:45.619Z,62.83
2022-08-17T09:50:17.824Z,62.53
2022-08-17T09:53:05.490Z,62.68
2022-08-17T09:55:40.015Z,62.81
2022-08-17T09:58:09.486Z,64.18
2022-08-17T10:00:39.166Z,62.74
2022-08-17T10:03:16.408Z,67.09
2022-08-17T10:05:49.778Z,68.21
2022-08-17T10:08:25.701Z,67.95
2022-08-17T10:10:58.923Z,65.95
2022-08-17T10:13:32.681Z,64.82
2022-08-17T10:16:05.425Z,65.70
2022-08-17T10:18:38.177Z,65.18
2022-08-17T10:21:27.141Z,64.58
2022-08-17T10:24:13.951Z,62.72
2022-08-17T10:26:56.614Z,63.00
2022-08-17T10:29:28.957Z,65.85
2022-08-17T10:31:59.192Z,65.63
2022-08-17T10:34:38.803Z,64.78
2022-08-17T10:37:15.838Z,66.18
2022-08-17T10:39:52.752Z,68.72
2022-08-17T10:42:32.432Z,69.52
2022-08-17T10:45:05.073Z,68.79
2022-08-17T10:47:59.089Z,65.88
2022-08-17T10:50:59.671Z,65.11
2022-08-17T10:53:46.996Z,65.76
2022-08-17T10:56:23.541Z,64.70
2022-08-17T10:58:55.120Z,68.79
2022-08-17T11:01:24.175Z,68.03
2022-08-17T11:03:56.761Z,72.00
2022-08-17T11:06:27.225Z,76.93
2022-08-17T11:09:05.206Z,78.86
2022-08-17T11:11:44.036Z,78.42
2022-08-17T11:14:17.253Z,76.38
2022-08-17T11:16:50.092Z,76.63
2022-08-17T11:19:22.439Z,74.29
2022-08-17T11:21:57.918Z,71.30
2022-08-17T11:24:30.709Z,72.19
2022-08-17T11:27:12.287Z,69.72
2022-08-17T11:29:52.928Z,66.92
2022-08-17T11:32:33.556Z,66.15
2022-08-17T11:35:13.500Z,66.51
2022-08-17T11:37:43.074Z,65.28
2022-08-17T11:40:14.643Z,68.38
2022-08-17T11:43:08.822Z,67.14
2022-08-17T11:45:46.185Z,68.99
2022-08-17T11:48:33.267Z,68.66
2022-08-17T11:51:19.397Z,67.51
2022-08-17T11:54:21.377Z,66.61
2022-08-17T11:56:46.908Z,66.74
2022-08-17T11:59:35.603Z,67.91
2022-08-17T12:02:06.693Z,65.61
2022-08-17T12:04:35.866Z,63.75
2022-08-17T12:07:08.376Z,63.93
2022-08-17T12:09:40.833Z,63.45
2022-08-17T12:12:14.305Z,62.76
2022-08-17T12:15:08.854Z,62.47
2022-08-17T12:17:40.814Z,61.55
2022-08-17T12:20:11.099Z,61.25
2022-08-17T12:22:42.244Z,69.26
2022-08-17T12:25:11.464Z,73.22
2022-08-17T12:27:52.986Z,73.59
2022-08-17T12:30:28.133Z,73.15
2022-08-17T12:32:57.906Z,74.94
2022-08-17T12:35:29.661Z,74.49
2022-08-17T12:37:59.789Z,73.11
2022-08-17T12:40:32.154Z,72.34
2022-08-17T12:43:00.829Z,71.41
2022-08-17T12:45:33.420Z,72.09
2022-08-17T12:48:07.872Z,71.07
2022-08-17T12:50:37.143Z,69.79
2022-08-17T12:53:14.087Z,67.31
2022-08-17T12:55:43.288Z,66.73
2022-08-17T12:58:14.510Z,65.78
2022-08-17T13:00:47.464Z,64.38
2022-08-17T13:03:19.407Z,63.81
2022-08-17T13:05:55.728Z,64.07
2022-08-17T13:08:24.743Z,62.51
2022-08-17T13:10:55.716Z,58.64
2022-08-17T13:13:28.075Z,54.52
2022-08-17T13:15:56.750Z,52.02
2022-08-17T13:18:40.187Z,53.22
2022-08-17T13:21:10.775Z,53.01
2022-08-17T13:23:39.192Z,51.95
2022-08-17T13:26:19.323Z,52.62
2022-08-17T13:28:48.512Z,50.86
2022-08-17T13:31:24.101Z,48.13
2022-08-17T13:33:53.168Z,48.79
2022-08-17T13:36:32.060Z,48.84
2022-08-17T13:39:09.385Z,51.24
2022-08-17T13:41:38.465Z,51.69
2022-08-17T13:44:21.063Z,49.19
2022-08-17T13:46:52.510Z,49.59
2022-08-17T13:49:41.910Z,46.99
2022-08-17T13:52:20.909Z,42.33
2022-08-17T13:54:55.679Z,42.85
2022-08-17T13:57:25.787Z,44.49
2022-08-17T13:59:55.930Z,46.51
2022-08-17T14:02:27.595Z,46.14
2022-08-17T14:05:00.748Z,44.99
2022-08-17T14:07:30.672Z,42.11
2022-08-17T14:10:03.445Z,39.57
2022-08-17T14:12:33.768Z,38.53
2022-08-17T14:15:01.626Z,39.45
2022-08-17T14:17:34.974Z,41.91
2022-08-17T14:20:10.884Z,43.43
2022-08-17T14:22:39.532Z,42.28
2022-08-17T14:25:10.272Z,42.29
2022-08-17T14:27:52.351Z,41.75
2022-08-17T14:30:21.589Z,43.64
2022-08-17T14:32:52.989Z,44.24
2022-08-17T14:35:24.485Z,43.55
2022-08-17T14:37:52.606Z,41.50
2022-08-17T14:40:24.646Z,43.05
2022-08-17T14:42:53.933Z,43.13
2022-08-17T14:45:29.980Z,42.63
2022-08-17T14:48:03.704Z,44.00
2022-08-17T14:50:35.283Z,43.61
2022-08-17T14:53:04.490Z,43.56
2022-08-17T14:55:32.591Z,41.98
2022-08-17T14:58:00.568Z,41.75
2022-08-17T15:00:28.686Z,40.88
2022-08-17T15:02:58.078Z,41.03
2022-08-17T15:05:31.957Z,41.44
2022-08-17T15:08:01.297Z,43.15
2022-08-17T15:10:31.600Z,43.26
2022-08-17T15:13:00.255Z,42.24
2022-08-17T15:15:28.355Z,42.69
2022-08-17T15:17:56.812Z,42.54
2022-08-17T15:20:27.298Z,42.80
2022-08-17T15:22:57.277Z,42.72
2022-08-17T15:25:27.872Z,41.52
2022-08-17T15:27:58.656Z,41.67
2022-08-17T15:30:27.096Z,41.24
2022-08-17T15:32:55.545Z,41.46
2022-08-17T15:35:28.946Z,42.12
2022-08-17T15:38:00.003Z,42.59
2022-08-17T15:40:36.757Z,43.50
2022-08-17T15:43:05.898Z,42.62
2022-08-17T15:45:33.583Z,43.56
2022-08-17T15:48:01.307Z,45.06
2022-08-17T15:50:32.044Z,45.85
2022-08-17T15:53:00.419Z,45.89
2022-08-17T15:55:28.812Z,45.52
2022-08-17T15:57:57.841Z,45.73
2022-08-17T16:00:28.125Z,45.79
2022-08-17T16:03:46.252Z,46.46
2022-08-17T16:05:44.063Z,46.91
2022-08-17T16:08:18.500Z,46.13
2022-08-17T16:10:48.548Z,46.40
2022-08-17T16:13:18.207Z,47.20
2022-08-17T16:15:49.718Z,47.67
2022-08-17T16:18:24.803Z,48.11
2022-08-17T16:20:53.290Z,48.41
2022-08-17T16:23:27.519Z,47.88
2022-08-17T16:25:55.326Z,48.13
2022-08-17T16:28:35.730Z,48.06
2022-08-17T16:31:04.370Z,47.97
2022-08-17T16:33:32.620Z,47.88
2022-08-17T16:36:01.051Z,48.74
2022-08-17T16:38:28.691Z,48.76
2022-08-17T16:40:58.725Z,49.33
2022-08-17T16:43:31.282Z,49.83
2022-08-17T16:46:00.778Z,49.96
2022-08-17T16:48:32.900Z,49.81
2022-08-17T16:51:04.316Z,49.89
2022-08-17T16:53:32.556Z,50.32
2022-08-17T16:56:00.229Z,49.85
2022-08-17T16:58:32.100Z,49.76
2022-08-17T17:01:02.522Z,48.97
2022-08-17T17:03:30.826Z,49.55
2022-08-17T17:06:00.553Z,50.61
2022-08-17T17:08:33.274Z,52.41
2022-08-17T17:11:03.958Z,52.89
2022-08-17T17:13:38.970Z,53.65
2022-08-17T17:16:14.243Z,54.43
2022-08-17T17:18:42.690Z,54.74
2022-08-17T17:21:11.771Z,55.11
2022-08-17T17:23:42.929Z,54.59
2022-08-17T17:26:21.939Z,55.79
2022-08-17T17:28:56.332Z,56.42
2022-08-17T17:31:24.648Z,56.91
2022-08-17T17:33:53.510Z,57.49
2022-08-17T17:36:23.210Z,58.41
2022-08-17T17:38:51.548Z,58.70
2022-08-17T17:41:25.974Z,58.42
2022-08-17T17:43:57.985Z,59.25
2022-08-17T17:46:31.369Z,58.83
2022-08-17T17:48:59.213Z,58.71
2022-08-17T17:52:09.605Z,58.73
2022-08-17T17:54:25.293Z,59.38
2022-08-17T17:56:55.668Z,59.77
2022-08-17T17:59:26.662Z,59.89
2022-08-17T18:01:55.436Z,60.54
2022-08-17T18:04:27.745Z,61.84
2022-08-17T18:06:59.347Z,61.41
2022-08-17T18:09:33.749Z,61.70
2022-08-17T18:12:09.412Z,61.82
2022-08-17T18:14:43.733Z,61.21
2022-08-17T18:17:11.998Z,60.50
2022-08-17T18:19:40.086Z,61.11
2022-08-17T18:22:14.512Z,61.55
2022-08-17T18:24:43.781Z,61.50
2022-08-17T18:27:23.250Z,59.78
2022-08-17T18:29:53.320Z,62.29
2022-08-17T18:32:26.152Z,61.02
2022-08-17T18:34:55.110Z,60.98
2022-08-17T18:37:36.512Z,61.00
2022-08-17T18:40:23.437Z,61.49
2022-08-17T18:42:57.536Z,60.70
2022-08-17T18:45:33.465Z,60.75
2022-08-17T18:48:03.940Z,60.66
2022-08-17T18:50:36.290Z,60.33
2022-08-17T18:53:21.414Z,59.07
2022-08-17T18:55:57.113Z,58.85
2022-08-17T18:58:27.879Z,60.33
2022-08-17T19:00:56.910Z,59.35
2022-08-17T19:03:25.740Z,59.50
2022-08-17T19:05:56.408Z,58.52
2022-08-17T19:08:25.469Z,58.38
2022-08-17T19:10:57.323Z,58.88
2022-08-17T19:13:30.914Z,57.37
2022-08-17T19:16:07.793Z,57.72
2022-08-17T19:18:46.699Z,56.74
2022-08-17T19:21:16.407Z,57.12
2022-08-17T19:23:53.337Z,58.48
2022-08-17T19:26:53.498Z,59.58
2022-08-17T19:29:12.990Z,59.93
2022-08-17T19:31:47.569Z,58.97
2022-08-17T19:34:30.167Z,59.17
2022-08-17T19:37:03.529Z,59.69
2022-08-17T19:39:38.291Z,60.72
2022-08-17T19:42:08.904Z,61.41
2022-08-17T19:44:45.815Z,62.51
2022-08-17T19:47:30.545Z,62.85
2022-08-17T19:50:04.993Z,65.51
2022-08-17T19:52:41.919Z,65.30
2022-08-17T19:55:11.219Z,65.20
2022-08-17T19:57:42.290Z,63.63
2022-08-17T20:00:11.932Z,63.40
2022-08-17T20:02:43.214Z,63.54
2022-08-17T20:05:15.681Z,63.62
2022-08-17T20:07:44.558Z,64.40
2022-08-17T20:10:14.640Z,65.30
2022-08-17T20:12:46.029Z,63.08
2022-08-17T20:15:18.087Z,62.83
2022-08-17T20:17:50.504Z,63.18
2022-08-17T20:20:21.885Z,62.92
2022-08-17T20:22:54.394Z,62.20
2022-08-17T20:25:30.522Z,63.37
2022-08-17T20:28:03.833Z,62.64
2022-08-17T20:30:37.469Z,62.29
2022-08-17T20:33:13.115Z,62.25
2022-08-17T20:35:42.850Z,62.87
2022-08-17T20:38:12.233Z,62.33
2022-08-17T20:40:40.584Z,62.93
2022-08-17T20:43:35.525Z,61.09
2022-08-17T20:46:08.192Z,61.43
2022-08-17T20:48:41.116Z,62.57
2022-08-17T20:51:20.810Z,62.69
2022-08-17T20:54:00.656Z,62.94
2022-08-17T20:57:01.526Z,62.89
2022-08-17T20:59:52.499Z,63.18
2022-08-17T21:02:21.208Z,62.70
2022-08-17T21:05:00.763Z,62.27
2022-08-17T21:07:30.139Z,62.21
2022-08-17T21:10:14.809Z,61.68
2022-08-17T21:12:49.080Z,60.50
2022-08-17T21:15:28.596Z,60.50
2022-08-17T21:17:59.194Z,60.73
2022-08-17T21:20:32.189Z,61.25
2022-08-17T21:23:30.393Z,62.07
2022-08-17T21:26:08.679Z,61.96
2022-08-17T21:29:00.772Z,60.84
2022-08-17T21:31:34.210Z,60.38
2022-08-17T21:34:22.392Z,59.83
2022-08-17T21:36:51.601Z,60.10
2022-08-17T21:39:32.480Z,60.43
2022-08-17T21:42:01.367Z,60.17
2022-08-17T21:44:32.051Z,60.25
2022-08-17T21:47:13.100Z,59.89
2022-08-17T21:49:40.862Z,59.70
2022-08-17T21:52:13.040Z,58.80
2022-08-17T21:54:42.741Z,59.57
2022-08-17T21:57:16.339Z,62.12
2022-08-17T21:59:46.773Z,66.29
2022-08-17T22:02:18.427Z,69.39
2022-08-17T22:04:47.538Z,69.89
2022-08-17T22:07:16.702Z,69.07
2022-08-17T22:09:47.648Z,69.64
2022-08-17T22:12:17.027Z,71.11
2022-08-17T22:14:52.821Z,71.53
2022-08-17T22:17:23.265Z,71.62
2022-08-17T22:19:51.652Z,71.46
2022-08-17T22:22:26.855Z,72.52
2022-08-17T22:24:57.511Z,73.46
2022-08-17T22:27:40.308Z,74.58
2022-08-17T22:30:17.287Z,75.04
2022-08-17T22:32:47.041Z,75.37
2022-08-17T22:35:32.614Z,76.63
2022-08-17T22:38:15.095Z,78.44
2022-08-17T22:40:44.623Z,78.21
2022-08-17T22:43:12.620Z,78.29
2022-08-17T22:45:51.475Z,79.32
2022-08-17T22:48:22.426Z,79.57
2022-08-17T22:51:12.759Z,81.00
2022-08-17T22:54:03.808Z,80.61
2022-08-17T22:56:50.622Z,79.90
2022-08-17T22:59:34.134Z,80.07
2022-08-17T23:02:16.064Z,80.44
2022-08-17T23:04:44.861Z,80.90
2022-08-17T23:07:12.619Z,79.09
2022-08-17T23:09:40.514Z,79.18
2022-08-17T23:12:15.871Z,78.73
2022-08-17T23:14:46.362Z,79.31
2022-08-17T23:17:16.835Z,77.25
2022-08-17T23:19:45.522Z,78.04
2022-08-17T23:22:13.169Z,76.47
2022-08-17T23:24:43.451Z,75.30
2022-08-17T23:27:14.184Z,75.88
2022-08-17T23:29:42.219Z,76.42
2022-08-17T23:32:11.182Z,75.44
2022-08-17T23:34:39.604Z,74.26
2022-08-17T23:37:07.642Z,75.29
2022-08-17T23:39:36.186Z,73.89
2022-08-17T23:42:05.588Z,76.05
2022-08-17T23:44:35.364Z,75.38
2022-08-17T23:47:04.675Z,76.69
2022-08-17T23:49:32.506Z,77.02
2022-08-17T23:52:04.237Z,77.40
2022-08-17T23:54:34.183Z,78.79
2022-08-17T23:57:01.932Z,78.64
2022-08-17T23:59:30.077Z,78.74
